Purgitsville, West Virginia
Current Conditions -  °F | °C
As of 5:15 PM on Monday 26 Jan 2015 (Local Time) from KW99 Reporting Station
Light Snow Light Snow  
Wind Chill: 31°   Ceiling: 1700
Heat Index: 31°   Visibility: 4mi
Dew Point: 31°   Wind: 0mph
Humidity: 98%   Direction: NA
Pressure: 29.72"   Gusts: NA
Location:  39.24°N, 78.92°W
Report Text: KW99 262215Z AUTO 00000KT 4SM -SN OVC017 00/M01 A2972 RMK AO2 T10031006
Loading
Personal Weather Stations






























Interactive Weather Map New forecast layout! Learn more

10-Day Weather Forecast

Advertisements
Track Severe Weather on mobile